Atoka, Tennessee
Current Conditions -  °F | °C
As of 4:50 PM on Thursday 20 Nov 2014 (Local Time) from KNQA Reporting Station
Broken Clouds Broken Clouds  
Wind Chill: 48°   Ceiling: 7500
Heat Index: 48°   Visibility: 10mi
Dew Point: 27°   Wind: 0mph
Humidity: 43%   Direction: NA
Pressure: 30.2"   Gusts: NA
Location:  35.44°N, 89.78°W
Report Text: KNQA 202250Z 00000KT 10SM BKN075 BKN250 09/M03 A3020
Loading
Personal Weather Stations






























Interactive Weather Map New forecast layout! Learn more

10-Day Weather Forecast

Advertisements
Track Severe Weather on mobile